createdAt,value
2022-12-14T00:01:23.878Z,27.07
2022-12-14T00:03:51.176Z,40.83
2022-12-14T00:06:19.122Z,33.83
2022-12-14T00:08:46.847Z,29.10
2022-12-14T00:11:16.544Z,33.13
2022-12-14T00:13:43.682Z,26.80
2022-12-14T00:16:15.153Z,34.10
2022-12-14T00:18:44.253Z,34.47
2022-12-14T00:21:13.455Z,29.33
2022-12-14T00:23:42.415Z,32.10
2022-12-14T00:26:10.878Z,28.63
2022-12-14T00:28:38.214Z,27.37
2022-12-14T00:31:05.228Z,28.77
2022-12-14T00:33:33.021Z,31.07
2022-12-14T00:35:59.807Z,30.90
2022-12-14T00:38:26.658Z,31.40
2022-12-14T00:40:54.525Z,30.13
2022-12-14T00:43:22.098Z,30.90
2022-12-14T00:45:48.634Z,31.00
2022-12-14T00:48:17.285Z,27.10
2022-12-14T00:50:48.592Z,34.43
2022-12-14T00:53:15.559Z,28.93
2022-12-14T00:55:44.112Z,28.10
2022-12-14T00:58:18.295Z,32.23
2022-12-14T01:00:44.680Z,24.40
2022-12-14T01:03:11.873Z,27.07
2022-12-14T01:05:39.144Z,27.20
2022-12-14T01:08:06.373Z,22.53
2022-12-14T01:10:32.906Z,27.47
2022-12-14T01:12:59.263Z,31.27
2022-12-14T01:15:25.934Z,23.17
2022-12-14T01:17:52.731Z,29.10
2022-12-14T01:20:19.239Z,27.30
2022-12-14T01:22:45.800Z,24.83
2022-12-14T01:25:12.186Z,28.23
2022-12-14T01:27:38.502Z,25.17
2022-12-14T01:30:05.173Z,25.00
2022-12-14T01:32:32.094Z,27.17
2022-12-14T01:34:58.451Z,29.00
2022-12-14T01:37:24.798Z,20.13
2022-12-14T01:39:51.149Z,25.80
2022-12-14T01:42:17.498Z,23.20
2022-12-14T01:44:44.054Z,26.60
2022-12-14T01:47:37.362Z,21.30
2022-12-14T01:50:08.327Z,26.90
2022-12-14T01:52:48.330Z,22.60
2022-12-14T01:55:38.796Z,26.50
2022-12-14T01:58:13.488Z,25.90
2022-12-14T02:00:40.102Z,25.63
2022-12-14T02:03:10.703Z,22.03
2022-12-14T02:05:40.739Z,23.73
2022-12-14T02:08:07.979Z,26.63
2022-12-14T02:10:34.607Z,24.40
2022-12-14T02:13:09.712Z,20.47
2022-12-14T02:15:38.615Z,25.00
2022-12-14T02:18:08.865Z,24.60
2022-12-14T02:20:45.492Z,22.33
2022-12-14T02:23:31.016Z,23.23
2022-12-14T02:26:34.958Z,23.03
2022-12-14T02:29:20.154Z,20.33
2022-12-14T02:32:04.415Z,29.43
2022-12-14T02:34:36.478Z,22.43
2022-12-14T02:37:21.573Z,24.40
2022-12-14T02:40:09.855Z,23.10
2022-12-14T02:42:59.574Z,20.80
2022-12-14T02:45:39.482Z,21.43
2022-12-14T02:48:24.480Z,21.47
2022-12-14T02:51:03.640Z,25.50
2022-12-14T02:53:36.822Z,17.90
2022-12-14T02:56:08.403Z,24.20
2022-12-14T02:58:41.405Z,20.57
2022-12-14T03:01:15.743Z,22.80
2022-12-14T03:03:42.710Z,21.70
2022-12-14T03:06:16.891Z,24.57
2022-12-14T03:08:46.287Z,19.27
2022-12-14T03:11:19.379Z,19.87
2022-12-14T03:13:56.017Z,20.80
2022-12-14T03:16:26.887Z,24.70
2022-12-14T03:19:05.516Z,25.13
2022-12-14T03:21:36.214Z,19.43
2022-12-14T03:24:08.170Z,16.87
2022-12-14T03:26:45.601Z,20.47
2022-12-14T03:29:21.466Z,17.57
2022-12-14T03:31:58.858Z,20.43
2022-12-14T03:34:34.006Z,19.83
2022-12-14T03:37:12.870Z,26.93
2022-12-14T03:39:42.961Z,18.93
2022-12-14T03:42:29.310Z,18.60
2022-12-14T03:45:14.830Z,20.77
2022-12-14T03:48:18.094Z,23.07
2022-12-14T03:50:49.668Z,19.33
2022-12-14T03:53:22.424Z,22.00
2022-12-14T03:56:08.039Z,18.47
2022-12-14T03:58:44.555Z,18.80
2022-12-14T04:01:28.924Z,20.60
2022-12-14T04:04:03.802Z,26.70
2022-12-14T04:06:44.430Z,19.63
2022-12-14T04:09:27.606Z,18.00
2022-12-14T04:12:40.471Z,18.70
2022-12-14T04:15:38.832Z,23.93
2022-12-14T04:18:27.921Z,19.07
2022-12-14T04:21:05.047Z,17.23
2022-12-14T04:23:54.730Z,15.90
2022-12-14T04:26:28.454Z,16.17
2022-12-14T04:29:35.314Z,15.87
2022-12-14T04:32:12.842Z,18.73
2022-12-14T04:34:42.994Z,20.37
2022-12-14T04:37:15.354Z,19.20
2022-12-14T04:39:48.891Z,15.50
2022-12-14T04:42:18.133Z,16.60
2022-12-14T04:44:56.669Z,14.50
2022-12-14T04:47:30.436Z,16.20
2022-12-14T04:50:13.388Z,16.57
2022-12-14T04:52:45.399Z,18.43
2022-12-14T04:55:19.054Z,13.80
2022-12-14T04:57:56.559Z,14.63
2022-12-14T05:00:23.690Z,14.93
2022-12-14T05:02:54.954Z,15.57
2022-12-14T05:05:55.075Z,12.13
2022-12-14T05:08:51.003Z,14.17
2022-12-14T05:14:21.314Z,17.17
2022-12-14T05:16:49.502Z,16.53
2022-12-14T05:19:16.258Z,13.23
2022-12-14T05:21:48.231Z,15.00
2022-12-14T05:24:16.233Z,15.13
2022-12-14T05:26:43.868Z,13.80
2022-12-14T05:29:10.612Z,16.37
2022-12-14T05:31:37.085Z,13.30
2022-12-14T05:34:03.758Z,21.07
2022-12-14T05:36:30.097Z,17.10
2022-12-14T05:38:56.421Z,16.67
2022-12-14T05:41:23.174Z,16.27
2022-12-14T05:43:49.487Z,13.23
2022-12-14T05:46:16.012Z,10.73
2022-12-14T05:48:46.139Z,13.50
2022-12-14T05:51:15.460Z,16.33
2022-12-14T05:53:41.782Z,12.77
2022-12-14T05:56:09.919Z,12.43
2022-12-14T05:58:36.914Z,14.53
2022-12-14T06:01:10.626Z,19.90
2022-12-14T06:03:40.335Z,12.43
2022-12-14T06:06:09.401Z,18.53
2022-12-14T06:08:38.214Z,19.83
2022-12-14T06:11:16.709Z,18.00
2022-12-14T06:13:44.041Z,19.27
2022-12-14T06:16:13.811Z,24.17
2022-12-14T06:18:47.701Z,13.33
2022-12-14T06:21:16.126Z,17.73
2022-12-14T06:23:42.902Z,16.03
2022-12-14T06:26:12.356Z,16.20
2022-12-14T06:28:39.121Z,15.20
2022-12-14T06:31:06.657Z,17.77
2022-12-14T06:33:37.612Z,18.57
2022-12-14T06:36:04.085Z,11.67
2022-12-14T06:38:30.427Z,15.47
2022-12-14T06:40:57.219Z,19.10
2022-12-14T06:43:27.170Z,13.23
2022-12-14T06:45:53.837Z,13.63
2022-12-14T06:48:20.362Z,13.27
2022-12-14T06:50:46.711Z,20.40
2022-12-14T06:53:13.705Z,16.10
2022-12-14T06:55:40.076Z,15.87
2022-12-14T06:58:06.474Z,17.10
2022-12-14T07:00:33.324Z,17.87
2022-12-14T07:02:59.792Z,21.93
2022-12-14T07:05:26.316Z,21.53
2022-12-14T07:07:52.645Z,17.90
2022-12-14T07:10:19.045Z,16.67
2022-12-14T07:12:45.364Z,16.33
2022-12-14T07:15:11.799Z,15.97
2022-12-14T07:17:38.191Z,21.27
2022-12-14T07:20:06.915Z,17.87
2022-12-14T07:22:34.213Z,15.50
2022-12-14T07:25:00.570Z,14.87
2022-12-14T07:27:27.071Z,15.53
2022-12-14T07:29:53.430Z,26.00
2022-12-14T07:32:19.811Z,22.13
2022-12-14T07:34:46.271Z,23.70
2022-12-14T07:37:13.405Z,20.17
2022-12-14T07:39:39.735Z,20.43
2022-12-14T07:42:06.094Z,22.70
2022-12-14T07:44:32.598Z,25.63
2022-12-14T07:46:59.039Z,35.17
2022-12-14T07:49:25.398Z,32.70
2022-12-14T07:51:52.954Z,41.27
2022-12-14T07:54:19.297Z,38.40
2022-12-14T07:56:45.670Z,34.10
2022-12-14T07:59:15.321Z,35.60
2022-12-14T08:01:43.565Z,30.67
2022-12-14T08:04:13.451Z,38.37
2022-12-14T08:06:40.550Z,32.03
2022-12-14T08:09:08.164Z,29.57
2022-12-14T08:11:35.017Z,29.10
2022-12-14T08:14:04.555Z,28.97
2022-12-14T08:16:32.168Z,25.23
2022-12-14T08:18:59.793Z,27.20
2022-12-14T08:21:27.243Z,27.17
2022-12-14T08:23:55.046Z,28.27
2022-12-14T08:26:22.215Z,31.10
2022-12-14T08:28:48.693Z,25.40
2022-12-14T08:31:17.726Z,34.33
2022-12-14T08:33:45.607Z,36.20
2022-12-14T08:36:17.881Z,41.70
2022-12-14T08:38:44.786Z,26.43
2022-12-14T08:41:13.490Z,28.20
2022-12-14T08:43:40.614Z,22.20
2022-12-14T08:46:10.703Z,42.97
2022-12-14T08:48:37.795Z,29.70
2022-12-14T08:51:09.591Z,32.30
2022-12-14T08:53:37.199Z,35.47
2022-12-14T08:56:12.737Z,25.27
2022-12-14T08:58:41.455Z,40.27
2022-12-14T09:01:09.526Z,31.73
2022-12-14T09:03:36.026Z,28.50
2022-12-14T09:06:07.905Z,29.37
2022-12-14T09:08:35.024Z,33.03
2022-12-14T09:11:02.610Z,28.60
2022-12-14T09:13:29.729Z,31.20
2022-12-14T09:16:05.147Z,41.40
2022-12-14T09:18:33.833Z,28.07
2022-12-14T09:21:01.231Z,30.60
2022-12-14T09:23:29.087Z,31.50
2022-12-14T09:26:05.763Z,33.67
2022-12-14T09:28:34.708Z,36.90
2022-12-14T09:31:03.991Z,36.47
2022-12-14T09:33:31.327Z,28.97
2022-12-14T09:36:02.951Z,39.63
2022-12-14T09:38:31.789Z,31.67
2022-12-14T09:41:03.934Z,27.73
2022-12-14T09:43:43.335Z,34.20
2022-12-14T09:46:18.666Z,37.20
2022-12-14T09:48:45.714Z,30.93
2022-12-14T09:51:19.315Z,31.27
2022-12-14T09:53:50.213Z,29.30
2022-12-14T09:56:19.407Z,31.83
2022-12-14T09:58:54.922Z,38.63
2022-12-14T10:01:23.970Z,34.33
2022-12-14T10:04:15.302Z,27.00
2022-12-14T10:07:12.684Z,37.30
2022-12-14T10:10:00.210Z,29.47
2022-12-14T10:13:02.920Z,36.23
2022-12-14T10:15:59.611Z,27.93
2022-12-14T10:18:59.886Z,33.37
2022-12-14T10:21:37.872Z,38.60
2022-12-14T10:24:11.226Z,32.20
2022-12-14T10:26:45.723Z,29.60
2022-12-14T10:29:17.049Z,31.50
2022-12-14T10:32:05.225Z,30.93
2022-12-14T10:34:33.492Z,39.77
2022-12-14T10:37:07.398Z,32.73
2022-12-14T10:39:49.362Z,33.37
2022-12-14T10:42:27.215Z,26.37
2022-12-14T10:48:11.398Z,28.90
2022-12-14T10:51:02.327Z,27.43
2022-12-14T10:53:41.172Z,24.87
2022-12-14T10:56:14.655Z,31.00
2022-12-14T10:58:41.042Z,34.73
2022-12-14T11:01:13.257Z,33.97
2022-12-14T11:03:41.505Z,22.80
2022-12-14T11:06:16.930Z,23.73
2022-12-14T11:08:49.024Z,29.23
2022-12-14T11:11:19.453Z,27.53
2022-12-14T11:14:06.670Z,27.63
2022-12-14T11:16:41.579Z,24.20
2022-12-14T11:19:18.894Z,23.90
2022-12-14T11:21:49.869Z,27.57
2022-12-14T11:24:27.750Z,33.70
2022-12-14T11:26:59.007Z,24.40
2022-12-14T11:29:35.062Z,25.47
2022-12-14T11:32:02.975Z,26.27
2022-12-14T11:34:38.915Z,31.47
2022-12-14T11:37:23.095Z,29.23
2022-12-14T11:39:52.765Z,24.30
2022-12-14T11:42:20.549Z,25.57
2022-12-14T11:44:48.692Z,22.93
2022-12-14T11:47:26.467Z,25.43
2022-12-14T11:49:54.475Z,27.90
2022-12-14T11:52:41.296Z,27.23
2022-12-14T11:55:22.989Z,24.43
2022-12-14T11:57:57.146Z,28.53
2022-12-14T12:00:28.249Z,27.10
2022-12-14T12:03:13.758Z,38.17
2022-12-14T12:05:44.757Z,25.43
2022-12-14T12:08:27.958Z,28.93
2022-12-14T12:11:02.003Z,22.70
2022-12-14T12:13:32.689Z,24.90
2022-12-14T12:16:01.875Z,23.70
2022-12-14T12:18:35.254Z,27.60
2022-12-14T12:21:19.810Z,26.20
2022-12-14T12:23:53.079Z,26.43
2022-12-14T12:26:32.400Z,28.97
2022-12-14T12:29:10.579Z,30.50
2022-12-14T12:31:58.669Z,27.40
2022-12-14T12:34:41.350Z,26.00
2022-12-14T12:37:26.403Z,25.23
2022-12-14T12:39:58.907Z,29.17
2022-12-14T12:42:45.110Z,23.10
2022-12-14T12:45:34.530Z,25.90
2022-12-14T12:48:05.799Z,28.13
2022-12-14T12:50:35.959Z,24.37
2022-12-14T12:53:13.236Z,27.10
2022-12-14T12:55:47.732Z,25.73
2022-12-14T12:58:24.848Z,22.20
2022-12-14T13:00:55.543Z,24.90
2022-12-14T13:03:47.035Z,25.93
2022-12-14T13:06:21.768Z,31.93
2022-12-14T13:08:55.944Z,26.07
2022-12-14T13:11:31.798Z,26.67
2022-12-14T13:14:05.366Z,26.47
2022-12-14T13:16:42.123Z,25.43
2022-12-14T13:22:15.122Z,25.53
2022-12-14T13:24:45.629Z,31.50
2022-12-14T13:27:45.643Z,25.63
2022-12-14T13:30:22.136Z,23.73
2022-12-14T13:33:34.382Z,29.00
2022-12-14T13:36:33.585Z,27.83
2022-12-14T13:39:30.841Z,28.33
2022-12-14T13:42:07.786Z,27.80
2022-12-14T13:44:55.887Z,23.37
2022-12-14T13:47:44.845Z,21.97
2022-12-14T13:50:36.357Z,26.03
2022-12-14T13:53:12.399Z,23.80
2022-12-14T13:55:48.081Z,23.77
2022-12-14T13:58:19.763Z,26.13
2022-12-14T14:00:46.492Z,23.80
2022-12-14T14:03:34.619Z,30.57
2022-12-14T14:06:08.857Z,24.80
2022-12-14T14:08:41.726Z,29.33
2022-12-14T14:11:39.389Z,25.17
2022-12-14T14:14:45.156Z,28.83
2022-12-14T14:17:21.318Z,22.27
2022-12-14T14:19:49.915Z,27.00
2022-12-14T14:22:23.752Z,26.37
2022-12-14T14:24:52.438Z,38.90
2022-12-14T14:27:22.332Z,36.10
2022-12-14T14:29:51.047Z,27.20
2022-12-14T14:32:34.984Z,34.33
2022-12-14T14:35:05.125Z,34.47
2022-12-14T14:37:34.598Z,36.70
2022-12-14T14:40:23.505Z,30.97
2022-12-14T14:43:16.511Z,35.73
2022-12-14T14:45:51.507Z,34.40
2022-12-14T14:48:36.782Z,38.00
2022-12-14T14:51:05.253Z,22.03
2022-12-14T14:53:36.229Z,25.40
2022-12-14T14:56:36.329Z,34.57
2022-12-14T14:59:17.750Z,25.43
2022-12-14T15:01:53.537Z,28.30
2022-12-14T15:04:29.290Z,26.80
2022-12-14T15:07:03.935Z,23.37
2022-12-14T15:09:33.725Z,28.43
2022-12-14T15:12:19.700Z,23.27
2022-12-14T15:14:52.900Z,34.23
2022-12-14T15:17:19.235Z,36.70
2022-12-14T15:19:56.853Z,29.30
2022-12-14T15:22:42.188Z,36.13
2022-12-14T15:25:29.002Z,30.33
2022-12-14T15:27:59.711Z,25.97
2022-12-14T15:30:27.867Z,27.73
2022-12-14T15:33:19.215Z,39.30
2022-12-14T15:35:46.913Z,29.20
2022-12-14T15:38:25.562Z,24.80
2022-12-14T15:40:57.393Z,25.47
2022-12-14T15:43:26.414Z,58.20
2022-12-14T15:45:56.020Z,180.03
2022-12-14T15:48:23.716Z,133.20
2022-12-14T15:50:59.635Z,175.63
2022-12-14T15:53:32.886Z,184.70
2022-12-14T15:56:08.336Z,114.77
2022-12-14T15:58:40.788Z,71.57
2022-12-14T16:01:11.720Z,73.00
2022-12-14T16:03:42.547Z,51.00
2022-12-14T16:06:10.829Z,65.47
2022-12-14T16:08:41.938Z,55.17
2022-12-14T16:11:19.208Z,55.33
2022-12-14T16:13:46.254Z,60.40
2022-12-14T16:16:13.855Z,52.60
2022-12-14T16:18:50.612Z,55.97
2022-12-14T16:21:35.950Z,37.27
2022-12-14T16:24:22.231Z,40.30
2022-12-14T16:26:56.936Z,39.50
2022-12-14T16:29:27.652Z,48.77
2022-12-14T16:32:13.312Z,35.43
2022-12-14T16:34:45.546Z,38.43
2022-12-14T16:37:32.871Z,40.90
2022-12-14T16:39:59.671Z,38.40
2022-12-14T16:42:26.721Z,43.17
2022-12-14T16:44:56.069Z,37.73
2022-12-14T16:47:28.694Z,32.70
2022-12-14T16:49:59.986Z,38.50
2022-12-14T16:52:31.840Z,32.30
2022-12-14T16:55:12.425Z,41.70
2022-12-14T16:57:49.333Z,38.17
2022-12-14T17:00:23.201Z,40.23
2022-12-14T17:03:01.433Z,40.43
2022-12-14T17:05:33.715Z,44.00
2022-12-14T17:08:00.310Z,43.67
2022-12-14T17:10:27.493Z,37.47
2022-12-14T17:12:58.800Z,36.43
2022-12-14T17:15:27.672Z,34.33
2022-12-14T17:17:56.490Z,44.70
2022-12-14T17:20:26.229Z,43.37
2022-12-14T17:22:54.367Z,38.07
2022-12-14T17:25:20.980Z,28.70
2022-12-14T17:27:47.826Z,34.90
2022-12-14T17:30:17.857Z,38.63
2022-12-14T17:32:45.347Z,30.87
2022-12-14T17:35:32.871Z,25.17
2022-12-14T17:37:59.591Z,25.53
2022-12-14T17:40:27.208Z,30.37
2022-12-14T17:42:56.843Z,28.87
2022-12-14T17:45:27.214Z,32.20
2022-12-14T17:47:54.465Z,25.77
2022-12-14T17:50:21.981Z,29.47
2022-12-14T17:52:50.181Z,29.13
2022-12-14T17:55:22.284Z,43.87
2022-12-14T17:57:49.280Z,46.93
2022-12-14T18:00:43.389Z,39.97
2022-12-14T18:03:12.118Z,32.67
2022-12-14T18:05:44.949Z,34.20
2022-12-14T18:08:18.190Z,28.33
2022-12-14T18:10:49.078Z,33.60
2022-12-14T18:13:15.527Z,28.27
2022-12-14T18:15:50.034Z,36.57
2022-12-14T18:18:20.655Z,28.97
2022-12-14T18:21:02.370Z,28.13
2022-12-14T18:23:30.223Z,33.07
2022-12-14T18:25:58.914Z,33.70
2022-12-14T18:28:26.346Z,31.93
2022-12-14T18:30:55.999Z,33.93
2022-12-14T18:33:25.539Z,26.80
2022-12-14T18:35:53.767Z,27.23
2022-12-14T18:38:20.609Z,27.60
2022-12-14T18:40:50.210Z,25.17
2022-12-14T18:43:25.051Z,30.03
2022-12-14T18:45:53.170Z,29.23
2022-12-14T18:48:19.952Z,26.77
2022-12-14T18:50:46.314Z,31.70
2022-12-14T18:53:18.288Z,27.73
2022-12-14T18:55:44.930Z,26.80
2022-12-14T18:58:40.260Z,31.50
2022-12-14T19:01:06.767Z,27.07
2022-12-14T19:03:33.537Z,29.13
2022-12-14T19:08:56.991Z,24.13
2022-12-14T19:11:31.629Z,29.93
2022-12-14T19:13:58.392Z,33.40
2022-12-14T19:16:25.186Z,30.50
2022-12-14T19:18:51.818Z,31.07
2022-12-14T19:21:19.251Z,22.53
2022-12-14T19:23:45.819Z,22.50
2022-12-14T19:26:12.223Z,31.63
2022-12-14T19:28:38.583Z,24.27
2022-12-14T19:31:05.298Z,20.87
2022-12-14T19:33:32.228Z,24.20
2022-12-14T19:36:00.171Z,22.97
2022-12-14T19:38:28.261Z,16.80
2022-12-14T19:41:04.087Z,22.27
2022-12-14T19:43:30.781Z,22.10
2022-12-14T19:45:57.690Z,20.40
2022-12-14T19:48:24.016Z,21.97
2022-12-14T19:50:50.702Z,24.47
2022-12-14T19:53:27.766Z,18.60
2022-12-14T19:55:54.220Z,15.00
2022-12-14T19:58:25.296Z,18.40
2022-12-14T20:00:52.039Z,20.43
2022-12-14T20:03:19.217Z,17.77
2022-12-14T20:05:53.318Z,19.83
2022-12-14T20:08:19.770Z,17.97
2022-12-14T20:10:46.846Z,17.67
2022-12-14T20:13:13.538Z,23.63
2022-12-14T20:15:40.335Z,18.87
2022-12-14T20:18:07.339Z,31.93
2022-12-14T20:20:34.200Z,15.60
2022-12-14T20:23:00.566Z,23.60
2022-12-14T20:25:26.923Z,20.80
2022-12-14T20:27:53.302Z,19.30
2022-12-14T20:30:19.736Z,17.20
2022-12-14T20:32:49.256Z,18.90
2022-12-14T20:35:18.569Z,22.43
2022-12-14T20:37:45.705Z,25.30
2022-12-14T20:40:12.509Z,22.80
2022-12-14T20:42:39.120Z,16.20
2022-12-14T20:45:07.324Z,18.70
2022-12-14T20:47:34.037Z,20.93
2022-12-14T20:50:00.402Z,22.23
2022-12-14T20:52:26.727Z,16.80
2022-12-14T20:54:53.556Z,16.67
2022-12-14T20:57:19.899Z,18.93
2022-12-14T20:59:46.410Z,16.50
2022-12-14T21:02:17.186Z,13.90
2022-12-14T21:04:43.654Z,17.70
2022-12-14T21:07:10.036Z,17.40
2022-12-14T21:09:36.357Z,21.90
2022-12-14T21:12:21.200Z,15.27
2022-12-14T21:14:52.125Z,16.40
2022-12-14T21:17:21.010Z,18.30
2022-12-14T21:19:47.811Z,14.10
2022-12-14T21:22:16.899Z,17.70
2022-12-14T21:27:32.736Z,20.07
2022-12-14T21:30:00.383Z,13.53
2022-12-14T21:32:27.048Z,19.03
2022-12-14T21:34:53.780Z,17.20
2022-12-14T21:37:20.503Z,15.07
2022-12-14T21:39:54.090Z,16.87
2022-12-14T21:42:21.958Z,18.23
2022-12-14T21:44:50.127Z,18.80
2022-12-14T21:47:22.876Z,17.97
2022-12-14T21:49:49.365Z,19.63
2022-12-14T21:52:19.156Z,19.13
2022-12-14T21:54:45.737Z,19.00
2022-12-14T21:57:42.737Z,21.63
2022-12-14T22:00:10.373Z,18.90
2022-12-14T22:02:36.840Z,19.97
2022-12-14T22:05:03.550Z,18.03
2022-12-14T22:07:32.700Z,20.23
2022-12-14T22:09:59.089Z,18.60
2022-12-14T22:12:25.753Z,18.40
2022-12-14T22:14:52.072Z,20.47
2022-12-14T22:17:18.714Z,23.07
2022-12-14T22:19:45.055Z,24.50
2022-12-14T22:22:14.982Z,24.40
2022-12-14T22:24:41.886Z,26.90
2022-12-14T22:27:10.604Z,14.80
2022-12-14T22:29:36.931Z,19.73
2022-12-14T22:32:03.447Z,17.27
2022-12-14T22:34:29.858Z,25.57
2022-12-14T22:36:56.647Z,21.03
2022-12-14T22:39:23.203Z,22.23
2022-12-14T22:41:49.680Z,20.27
2022-12-14T22:44:16.095Z,19.60
2022-12-14T22:46:42.564Z,19.13
2022-12-14T22:49:14.285Z,17.70
2022-12-14T22:51:41.099Z,16.97
2022-12-14T22:54:07.415Z,21.07
2022-12-14T22:56:44.385Z,16.83
2022-12-14T22:59:19.538Z,17.80
2022-12-14T23:01:50.163Z,17.43
2022-12-14T23:04:17.357Z,17.20
2022-12-14T23:06:44.967Z,18.37
2022-12-14T23:09:30.647Z,15.27
2022-12-14T23:12:21.355Z,22.00
2022-12-14T23:15:07.211Z,15.43
2022-12-14T23:17:52.827Z,21.17
2022-12-14T23:20:37.978Z,18.13
2022-12-14T23:23:26.191Z,15.60
2022-12-14T23:26:11.528Z,13.77
2022-12-14T23:28:57.247Z,27.73
2022-12-14T23:31:42.011Z,15.67
2022-12-14T23:34:26.724Z,17.90
2022-12-14T23:37:15.080Z,23.70
2022-12-14T23:40:04.587Z,23.47
2022-12-14T23:42:49.428Z,21.90
2022-12-14T23:45:34.141Z,18.63
2022-12-14T23:48:19.371Z,21.93
2022-12-14T23:51:04.247Z,16.20
2022-12-14T23:53:49.898Z,21.23
2022-12-14T23:56:35.719Z,23.17
2022-12-14T23:59:24.951Z,19.70
